SXS5LZ LTBJ-EPKK
Flight info
| Callsign | SXS5LZ |
|---|---|
| Flight time | 1h 58m |
| Altitude | 36000 |
| Route | BERGO UG80 BIG/N0459F380 UG80 EKI UN618 VADEN DCT BULEN DCT IRLOX DCT KARIL DCT LENOV |
| Aircraft | B38M/M-SADE2E3GIJ4J7RW/LB1D1 |
Departure
| Time | 2026-05-05 21:28 |
|---|---|
| Airport | Adnan Menderes International Airport (LTBJ) |
Arrival
| Time | 2026-05-05 23:26 |
|---|---|
| Airport | Kraków John Paul II International Airport (EPKK) |
| Time | Latitude | Longitude | Altitude | Speed | Heading |
|---|---|---|---|---|---|
| 2026-05-05 21:01 | 38.29198 | 27.15084 | 403 ft | 0 kts | 257° |
| 2026-05-05 21:18 | 38.29199 | 27.15089 | 402 ft | 2 kts | 255° |
| 2026-05-05 21:18 | 38.29203 | 27.15108 | 402 ft | 2 kts | 257° |
| 2026-05-05 21:18 | 38.29207 | 27.15128 | 402 ft | 2 kts | 256° |
| 2026-05-05 21:19 | 38.29209 | 27.15141 | 402 ft | 2 kts | 257° |
| 2026-05-05 21:19 | 38.29219 | 27.15160 | 401 ft | 2 kts | 206° |
| 2026-05-05 21:19 | 38.29234 | 27.15164 | 401 ft | 0 kts | 170° |
| 2026-05-05 21:19 | 38.29241 | 27.15162 | 401 ft | 1 kts | 166° |
| 2026-05-05 21:20 | 38.29241 | 27.15161 | 401 ft | 0 kts | 166° |
| 2026-05-05 21:21 | 38.29240 | 27.15162 | 401 ft | 0 kts | 166° |
| 2026-05-05 21:21 | 38.29233 | 27.15164 | 401 ft | 2 kts | 166° |
| 2026-05-05 21:22 | 38.29202 | 27.15173 | 402 ft | 5 kts | 166° |
| 2026-05-05 21:22 | 38.29151 | 27.15189 | 403 ft | 8 kts | 166° |
| 2026-05-05 21:22 | 38.29074 | 27.15212 | 403 ft | 12 kts | 167° |
| 2026-05-05 21:22 | 38.29014 | 27.15253 | 403 ft | 9 kts | 97° |
| 2026-05-05 21:23 | 38.28952 | 27.15315 | 403 ft | 13 kts | 166° |
| 2026-05-05 21:23 | 38.28843 | 27.15348 | 403 ft | 14 kts | 166° |
| 2026-05-05 21:23 | 38.28739 | 27.15379 | 402 ft | 13 kts | 166° |
| 2026-05-05 21:23 | 38.28643 | 27.15408 | 401 ft | 13 kts | 166° |
| 2026-05-05 21:24 | 38.28553 | 27.15435 | 401 ft | 12 kts | 166° |
| 2026-05-05 21:24 | 38.28464 | 27.15462 | 399 ft | 14 kts | 166° |
| 2026-05-05 21:24 | 38.28354 | 27.15495 | 397 ft | 16 kts | 166° |
| 2026-05-05 21:24 | 38.28231 | 27.15532 | 392 ft | 18 kts | 166° |
| 2026-05-05 21:25 | 38.28093 | 27.15574 | 387 ft | 19 kts | 166° |
| 2026-05-05 21:25 | 38.27953 | 27.15616 | 383 ft | 17 kts | 166° |
| 2026-05-05 21:25 | 38.27850 | 27.15647 | 380 ft | 13 kts | 167° |
| 2026-05-05 21:25 | 38.27760 | 27.15698 | 377 ft | 13 kts | 114° |
| 2026-05-05 21:26 | 38.27776 | 27.15825 | 375 ft | 13 kts | 76° |
| 2026-05-05 21:26 | 38.27799 | 27.15939 | 376 ft | 11 kts | 76° |
| 2026-05-05 21:26 | 38.27817 | 27.16040 | 376 ft | 9 kts | 77° |
| 2026-05-05 21:26 | 38.27832 | 27.16106 | 378 ft | 4 kts | 55° |
| 2026-05-05 21:27 | 38.27864 | 27.16110 | 380 ft | 6 kts | 343° |
| 2026-05-05 21:27 | 38.28082 | 27.16043 | 384 ft | 68 kts | 346° |
| 2026-05-05 21:27 | 38.28763 | 27.15841 | 402 ft | 130 kts | 347° |
| 2026-05-05 21:27 | 38.29861 | 27.15504 | 606 ft | 166 kts | 345° |
| 2026-05-05 21:28 | 38.31033 | 27.15101 | 1402 ft | 167 kts | 346° |
| 2026-05-05 21:28 | 38.32229 | 27.14739 | 2039 ft | 175 kts | 349° |
| 2026-05-05 21:28 | 38.33503 | 27.14415 | 2527 ft | 185 kts | 349° |
| 2026-05-05 21:28 | 38.34840 | 27.14035 | 2932 ft | 201 kts | 347° |
| 2026-05-05 21:29 | 38.36268 | 27.13601 | 3398 ft | 215 kts | 347° |
| 2026-05-05 21:29 | 38.37934 | 27.13088 | 3922 ft | 233 kts | 347° |
| 2026-05-05 21:29 | 38.39708 | 27.12545 | 4538 ft | 245 kts | 347° |
| 2026-05-05 21:29 | 38.41546 | 27.11989 | 5235 ft | 253 kts | 347° |
| 2026-05-05 21:30 | 38.43346 | 27.11446 | 6099 ft | 252 kts | 347° |
| 2026-05-05 21:30 | 38.45187 | 27.10890 | 6932 ft | 254 kts | 347° |
| 2026-05-05 21:30 | 38.47015 | 27.10338 | 7705 ft | 256 kts | 347° |
| 2026-05-05 21:30 | 38.48933 | 27.09758 | 8510 ft | 258 kts | 347° |
| 2026-05-05 21:31 | 38.50874 | 27.09170 | 9284 ft | 261 kts | 347° |
| 2026-05-05 21:31 | 38.52831 | 27.08578 | 10017 ft | 265 kts | 347° |
| 2026-05-05 21:31 | 38.54781 | 27.07987 | 10595 ft | 273 kts | 347° |
| 2026-05-05 21:31 | 38.56750 | 27.07390 | 10980 ft | 287 kts | 347° |
| 2026-05-05 21:32 | 38.58921 | 27.06732 | 11346 ft | 302 kts | 347° |
| 2026-05-05 21:32 | 38.61247 | 27.06179 | 11721 ft | 316 kts | 355° |
| 2026-05-05 21:32 | 38.63690 | 27.06281 | 12051 ft | 332 kts | 6° |
| 2026-05-05 21:32 | 38.66268 | 27.06799 | 12354 ft | 347 kts | 8° |
| 2026-05-05 21:33 | 38.68945 | 27.07412 | 12738 ft | 358 kts | 8° |
| 2026-05-05 21:33 | 38.71605 | 27.07987 | 13348 ft | 361 kts | 7° |
| 2026-05-05 21:33 | 38.74428 | 27.08551 | 14019 ft | 364 kts | 7° |
| 2026-05-05 21:33 | 38.77175 | 27.09071 | 14667 ft | 367 kts | 6° |
| 2026-05-05 21:34 | 38.79999 | 27.09593 | 15338 ft | 371 kts | 6° |
| 2026-05-05 21:34 | 38.82740 | 27.10096 | 15981 ft | 374 kts | 6° |
| 2026-05-05 21:34 | 38.85472 | 27.10599 | 16612 ft | 376 kts | 6° |
| 2026-05-05 21:34 | 38.88413 | 27.11141 | 17169 ft | 381 kts | 6° |
| 2026-05-05 21:35 | 38.91298 | 27.11674 | 17766 ft | 385 kts | 6° |
| 2026-05-05 21:35 | 38.93998 | 27.12176 | 18357 ft | 386 kts | 6° |
| 2026-05-05 21:35 | 38.96907 | 27.12717 | 18863 ft | 391 kts | 6° |
| 2026-05-05 21:35 | 38.99840 | 27.13262 | 19494 ft | 393 kts | 6° |
| 2026-05-05 21:36 | 39.02858 | 27.13818 | 20015 ft | 397 kts | 6° |
| 2026-05-05 21:36 | 39.05799 | 27.14353 | 20561 ft | 399 kts | 6° |
| 2026-05-05 21:36 | 39.08824 | 27.14904 | 21110 ft | 401 kts | 6° |
| 2026-05-05 21:36 | 39.11890 | 27.15461 | 21624 ft | 405 kts | 6° |
| 2026-05-05 21:37 | 39.14858 | 27.16001 | 22087 ft | 408 kts | 6° |
| 2026-05-05 21:37 | 39.17756 | 27.16529 | 22517 ft | 412 kts | 6° |
| 2026-05-05 21:37 | 39.20751 | 27.17076 | 23020 ft | 413 kts | 6° |
| 2026-05-05 21:37 | 39.23637 | 27.17603 | 23412 ft | 417 kts | 6° |
| 2026-05-05 21:38 | 39.26513 | 27.18130 | 23837 ft | 420 kts | 6° |
| 2026-05-05 21:38 | 39.29393 | 27.18659 | 24327 ft | 421 kts | 6° |
| 2026-05-05 21:38 | 39.32320 | 27.19197 | 24705 ft | 424 kts | 6° |
| 2026-05-05 21:38 | 39.35249 | 27.19737 | 25204 ft | 424 kts | 6° |
| 2026-05-05 21:39 | 39.38236 | 27.20287 | 25528 ft | 429 kts | 6° |
| 2026-05-05 21:39 | 39.41208 | 27.20835 | 25983 ft | 430 kts | 5° |
| 2026-05-05 21:39 | 39.44186 | 27.21383 | 26357 ft | 432 kts | 6° |
| 2026-05-05 21:39 | 39.47202 | 27.21938 | 26758 ft | 433 kts | 5° |
| 2026-05-05 21:40 | 39.50243 | 27.22487 | 27155 ft | 435 kts | 5° |
| 2026-05-05 21:40 | 39.53323 | 27.23036 | 27769 ft | 431 kts | 5° |
| 2026-05-05 21:40 | 39.56296 | 27.23564 | 28345 ft | 428 kts | 5° |
| 2026-05-05 21:40 | 39.59322 | 27.24098 | 28873 ft | 426 kts | 5° |
| 2026-05-05 21:41 | 39.62307 | 27.24625 | 29330 ft | 425 kts | 5° |
| 2026-05-05 21:41 | 39.65354 | 27.25165 | 29819 ft | 423 kts | 5° |
| 2026-05-05 21:41 | 39.68404 | 27.25708 | 30287 ft | 421 kts | 5° |
| 2026-05-05 21:41 | 39.71386 | 27.26241 | 30664 ft | 421 kts | 5° |
| 2026-05-05 21:42 | 39.74390 | 27.26779 | 31027 ft | 421 kts | 5° |
| 2026-05-05 21:42 | 39.77408 | 27.27319 | 31408 ft | 420 kts | 5° |
| 2026-05-05 21:42 | 39.80387 | 27.27853 | 31782 ft | 419 kts | 5° |
| 2026-05-05 21:42 | 39.83402 | 27.28396 | 32120 ft | 419 kts | 5° |
| 2026-05-05 21:43 | 39.86386 | 27.28934 | 32480 ft | 419 kts | 5° |
| 2026-05-05 21:43 | 39.89417 | 27.29480 | 32845 ft | 417 kts | 5° |
| 2026-05-05 21:43 | 39.92385 | 27.30015 | 33241 ft | 415 kts | 5° |
| 2026-05-05 21:43 | 39.95311 | 27.30542 | 33606 ft | 414 kts | 5° |
| 2026-05-05 21:44 | 39.98340 | 27.31088 | 33827 ft | 416 kts | 5° |
| 2026-05-05 21:44 | 40.01297 | 27.31621 | 34116 ft | 415 kts | 5° |
| 2026-05-05 21:44 | 40.04266 | 27.32158 | 34414 ft | 414 kts | 5° |
| 2026-05-05 21:44 | 40.07199 | 27.32689 | 34623 ft | 416 kts | 5° |
| 2026-05-05 21:45 | 40.10111 | 27.33214 | 34805 ft | 417 kts | 5° |
| 2026-05-05 21:45 | 40.13015 | 27.33740 | 35048 ft | 417 kts | 5° |
| 2026-05-05 21:45 | 40.15914 | 27.34267 | 35284 ft | 417 kts | 5° |
| 2026-05-05 21:45 | 40.18834 | 27.34798 | 35501 ft | 418 kts | 5° |
| 2026-05-05 21:46 | 40.21741 | 27.35326 | 35708 ft | 419 kts | 5° |
| 2026-05-05 21:46 | 40.24649 | 27.35854 | 35931 ft | 419 kts | 5° |
| 2026-05-05 21:46 | 40.27554 | 27.36384 | 36156 ft | 419 kts | 5° |
| 2026-05-05 21:46 | 40.30425 | 27.36859 | 36417 ft | 419 kts | 3° |
| 2026-05-05 21:47 | 40.33363 | 27.37196 | 36609 ft | 419 kts | 2° |
| 2026-05-05 21:47 | 40.36337 | 27.37445 | 36805 ft | 420 kts | 1° |
| 2026-05-05 21:47 | 40.39264 | 27.37664 | 37015 ft | 420 kts | 1° |
| 2026-05-05 21:47 | 40.42154 | 27.37881 | 37271 ft | 420 kts | 1° |
| 2026-05-05 21:48 | 40.45089 | 27.38110 | 37428 ft | 421 kts | 1° |
| 2026-05-05 21:48 | 40.48004 | 27.38349 | 37625 ft | 422 kts | 2° |
| 2026-05-05 21:48 | 40.50938 | 27.38602 | 37826 ft | 422 kts | 2° |
| 2026-05-05 21:48 | 40.53860 | 27.38858 | 38007 ft | 422 kts | 2° |
| 2026-05-05 21:49 | 40.59934 | 27.39399 | 38061 ft | 423 kts | 2° |
| 2026-05-05 21:49 | 40.66254 | 27.39973 | 38075 ft | 421 kts | 2° |
| 2026-05-05 21:50 | 40.72557 | 27.40548 | 38066 ft | 422 kts | 2° |
| 2026-05-05 21:50 | 40.78749 | 27.41113 | 38070 ft | 422 kts | 2° |
| 2026-05-05 21:51 | 40.85045 | 27.41689 | 38070 ft | 422 kts | 2° |
| 2026-05-05 21:51 | 40.91594 | 27.42277 | 38068 ft | 421 kts | 1° |
| 2026-05-05 21:52 | 41.01239 | 27.41613 | 38064 ft | 420 kts | 351° |
| 2026-05-05 21:53 | 41.07515 | 27.40410 | 38065 ft | 420 kts | 351° |
| 2026-05-05 21:53 | 41.13568 | 27.39231 | 38075 ft | 421 kts | 351° |
| 2026-05-05 21:54 | 41.19601 | 27.38086 | 38074 ft | 420 kts | 351° |
| 2026-05-05 21:54 | 41.25854 | 27.36914 | 38075 ft | 419 kts | 351° |
| 2026-05-05 21:55 | 41.32189 | 27.35728 | 38075 ft | 420 kts | 351° |
| 2026-05-05 21:55 | 41.38636 | 27.34517 | 38071 ft | 420 kts | 351° |
| 2026-05-05 21:56 | 41.44995 | 27.33321 | 38073 ft | 421 kts | 351° |
| 2026-05-05 21:56 | 41.51249 | 27.32143 | 38069 ft | 420 kts | 351° |
| 2026-05-05 21:57 | 41.57357 | 27.30992 | 38064 ft | 421 kts | 351° |
| 2026-05-05 21:57 | 41.63527 | 27.29825 | 38071 ft | 421 kts | 351° |
| 2026-05-05 21:58 | 41.69732 | 27.28646 | 38068 ft | 421 kts | 351° |
| 2026-05-05 21:58 | 41.76093 | 27.27439 | 38070 ft | 422 kts | 351° |
| 2026-05-05 21:59 | 41.82558 | 27.26210 | 38072 ft | 423 kts | 351° |
| 2026-05-05 21:59 | 41.89073 | 27.24968 | 38062 ft | 422 kts | 351° |
| 2026-05-05 22:00 | 41.95015 | 27.23831 | 38069 ft | 423 kts | 351° |
| 2026-05-05 22:00 | 42.00852 | 27.22711 | 38062 ft | 422 kts | 351° |
| 2026-05-05 22:01 | 42.06579 | 27.20962 | 38061 ft | 422 kts | 340° |
| 2026-05-05 22:01 | 42.12141 | 27.17329 | 38065 ft | 424 kts | 330° |
| 2026-05-05 22:02 | 42.17601 | 27.12903 | 38063 ft | 424 kts | 329° |
| 2026-05-05 22:02 | 42.23173 | 27.08300 | 38066 ft | 424 kts | 329° |
| 2026-05-05 22:03 | 42.28710 | 27.03765 | 38066 ft | 424 kts | 329° |
| 2026-05-05 22:03 | 42.33805 | 26.99623 | 38069 ft | 424 kts | 330° |
| 2026-05-05 22:04 | 42.39284 | 26.95256 | 38068 ft | 425 kts | 330° |
| 2026-05-05 22:04 | 42.45029 | 26.90681 | 38066 ft | 424 kts | 330° |
| 2026-05-05 22:05 | 42.50742 | 26.86104 | 38069 ft | 424 kts | 330° |
| 2026-05-05 22:05 | 42.56386 | 26.81563 | 38066 ft | 424 kts | 330° |
| 2026-05-05 22:06 | 42.62034 | 26.77008 | 38068 ft | 424 kts | 330° |
| 2026-05-05 22:06 | 42.67634 | 26.72479 | 38070 ft | 424 kts | 330° |
| 2026-05-05 22:07 | 42.73163 | 26.67998 | 38053 ft | 423 kts | 330° |
| 2026-05-05 22:07 | 42.78643 | 26.63547 | 38053 ft | 423 kts | 330° |
| 2026-05-05 22:08 | 42.84333 | 26.58916 | 38051 ft | 423 kts | 330° |
| 2026-05-05 22:08 | 42.90061 | 26.54246 | 38054 ft | 424 kts | 330° |
| 2026-05-05 22:09 | 42.95771 | 26.49581 | 38057 ft | 424 kts | 330° |
| 2026-05-05 22:09 | 43.01475 | 26.44910 | 38059 ft | 425 kts | 330° |
| 2026-05-05 22:10 | 43.07182 | 26.40226 | 38059 ft | 424 kts | 330° |
| 2026-05-05 22:10 | 43.12753 | 26.35642 | 38046 ft | 424 kts | 330° |
| 2026-05-05 22:11 | 43.18445 | 26.30950 | 38042 ft | 424 kts | 329° |
| 2026-05-05 22:11 | 43.24134 | 26.26247 | 38040 ft | 424 kts | 329° |
| 2026-05-05 22:12 | 43.29773 | 26.21578 | 38038 ft | 424 kts | 329° |
| 2026-05-05 22:12 | 43.35471 | 26.16847 | 38032 ft | 424 kts | 329° |
| 2026-05-05 22:13 | 43.41162 | 26.12115 | 38031 ft | 425 kts | 329° |
| 2026-05-05 22:13 | 43.46845 | 26.07381 | 38023 ft | 424 kts | 329° |
| 2026-05-05 22:14 | 43.52254 | 26.02865 | 38017 ft | 424 kts | 329° |
| 2026-05-05 22:14 | 43.57677 | 25.98323 | 38009 ft | 424 kts | 329° |
| 2026-05-05 22:15 | 43.62958 | 25.93891 | 38010 ft | 425 kts | 329° |
| 2026-05-05 22:15 | 43.68235 | 25.89456 | 38006 ft | 425 kts | 329° |
| 2026-05-05 22:16 | 43.73661 | 25.84883 | 38001 ft | 425 kts | 329° |
| 2026-05-05 22:16 | 43.78956 | 25.80415 | 38002 ft | 425 kts | 329° |
| 2026-05-05 22:17 | 43.84367 | 25.75834 | 37996 ft | 425 kts | 329° |
| 2026-05-05 22:17 | 43.89766 | 25.71255 | 38004 ft | 425 kts | 329° |
| 2026-05-05 22:18 | 43.95103 | 25.66723 | 38000 ft | 424 kts | 329° |
| 2026-05-05 22:18 | 44.00667 | 25.61988 | 38008 ft | 425 kts | 329° |
| 2026-05-05 22:19 | 44.06080 | 25.57369 | 38002 ft | 424 kts | 329° |
| 2026-05-05 22:19 | 44.11602 | 25.52646 | 37999 ft | 424 kts | 329° |
| 2026-05-05 22:20 | 44.17191 | 25.47856 | 38000 ft | 424 kts | 329° |
| 2026-05-05 22:20 | 44.22664 | 25.43154 | 38001 ft | 425 kts | 329° |
| 2026-05-05 22:21 | 44.25143 | 25.41023 | 38001 ft | 426 kts | 329° |
| 2026-05-05 22:21 | 44.27618 | 25.38893 | 37997 ft | 426 kts | 329° |
| 2026-05-05 22:22 | 44.30864 | 25.36095 | 38000 ft | 425 kts | 329° |
| 2026-05-05 22:22 | 44.32532 | 25.34654 | 38003 ft | 425 kts | 329° |
| 2026-05-05 22:23 | 44.37624 | 25.30252 | 37994 ft | 424 kts | 329° |
| 2026-05-05 22:23 | 44.43080 | 25.25527 | 37990 ft | 425 kts | 329° |
| 2026-05-05 22:24 | 44.46641 | 25.22437 | 38006 ft | 427 kts | 329° |
| 2026-05-05 22:24 | 44.51983 | 25.17792 | 38009 ft | 425 kts | 329° |
| 2026-05-05 22:25 | 44.57691 | 25.12818 | 38014 ft | 426 kts | 329° |
| 2026-05-05 22:25 | 44.63374 | 25.07852 | 38015 ft | 426 kts | 329° |
| 2026-05-05 22:26 | 44.69006 | 25.02922 | 38024 ft | 425 kts | 329° |
| 2026-05-05 22:26 | 44.74644 | 24.97975 | 38023 ft | 426 kts | 329° |
| 2026-05-05 22:27 | 44.80364 | 24.92947 | 38021 ft | 426 kts | 329° |
| 2026-05-05 22:27 | 44.86047 | 24.87938 | 38026 ft | 427 kts | 328° |
| 2026-05-05 22:28 | 44.91577 | 24.83054 | 38023 ft | 426 kts | 328° |
| 2026-05-05 22:28 | 44.97149 | 24.78120 | 38026 ft | 426 kts | 329° |
| 2026-05-05 22:29 | 45.02683 | 24.73210 | 38029 ft | 427 kts | 329° |
| 2026-05-05 22:29 | 45.08168 | 24.68329 | 38030 ft | 427 kts | 329° |
| 2026-05-05 22:30 | 45.13817 | 24.63293 | 38027 ft | 427 kts | 329° |
| 2026-05-05 22:30 | 45.19507 | 24.58208 | 38024 ft | 427 kts | 328° |
| 2026-05-05 22:31 | 45.25166 | 24.53136 | 38028 ft | 427 kts | 329° |
| 2026-05-05 22:31 | 45.30348 | 24.48480 | 38039 ft | 427 kts | 329° |
| 2026-05-05 22:32 | 45.35406 | 24.43929 | 38060 ft | 429 kts | 328° |
| 2026-05-05 22:32 | 45.40627 | 24.39220 | 38071 ft | 428 kts | 328° |
| 2026-05-05 22:33 | 45.46114 | 24.34261 | 38068 ft | 428 kts | 328° |
| 2026-05-05 22:33 | 45.51718 | 24.29181 | 38053 ft | 427 kts | 328° |
| 2026-05-05 22:34 | 45.57310 | 24.24101 | 38013 ft | 428 kts | 328° |
| 2026-05-05 22:34 | 45.62843 | 24.19064 | 38004 ft | 428 kts | 328° |
| 2026-05-05 22:35 | 45.68475 | 24.14331 | 37991 ft | 427 kts | 332° |
| 2026-05-05 22:35 | 45.74211 | 24.09996 | 37979 ft | 428 kts | 332° |
| 2026-05-05 22:36 | 45.79953 | 24.05654 | 37981 ft | 428 kts | 332° |
| 2026-05-05 22:36 | 45.85717 | 24.01228 | 37990 ft | 429 kts | 332° |
| 2026-05-05 22:37 | 45.91386 | 23.96832 | 37995 ft | 430 kts | 332° |
| 2026-05-05 22:37 | 45.97165 | 23.92325 | 37994 ft | 429 kts | 332° |
| 2026-05-05 22:38 | 46.02472 | 23.88173 | 37987 ft | 430 kts | 332° |
| 2026-05-05 22:38 | 46.07737 | 23.84044 | 37981 ft | 430 kts | 332° |
| 2026-05-05 22:39 | 46.12989 | 23.79917 | 37983 ft | 430 kts | 332° |
| 2026-05-05 22:39 | 46.18696 | 23.75421 | 37982 ft | 431 kts | 332° |
| 2026-05-05 22:40 | 46.24491 | 23.70846 | 37978 ft | 432 kts | 332° |
| 2026-05-05 22:40 | 46.30371 | 23.66191 | 37981 ft | 432 kts | 331° |
| 2026-05-05 22:41 | 46.36271 | 23.61509 | 37992 ft | 433 kts | 331° |
| 2026-05-05 22:41 | 46.42150 | 23.56832 | 38002 ft | 432 kts | 331° |
| 2026-05-05 22:42 | 46.48131 | 23.52063 | 38011 ft | 433 kts | 331° |
| 2026-05-05 22:42 | 46.54012 | 23.47362 | 38017 ft | 433 kts | 331° |
| 2026-05-05 22:43 | 46.59797 | 23.42726 | 38020 ft | 434 kts | 331° |
| 2026-05-05 22:43 | 46.65568 | 23.38090 | 38015 ft | 434 kts | 331° |
| 2026-05-05 22:44 | 46.71383 | 23.33406 | 38005 ft | 434 kts | 330° |
| 2026-05-05 22:44 | 46.77222 | 23.28691 | 38001 ft | 434 kts | 330° |
| 2026-05-05 22:45 | 46.83066 | 23.23961 | 38002 ft | 433 kts | 330° |
| 2026-05-05 22:45 | 46.88699 | 23.19391 | 37990 ft | 435 kts | 330° |
| 2026-05-05 22:46 | 46.94176 | 23.14936 | 37978 ft | 436 kts | 330° |
| 2026-05-05 22:46 | 46.99482 | 23.10612 | 37969 ft | 435 kts | 330° |
| 2026-05-05 22:47 | 47.04725 | 23.06328 | 37972 ft | 435 kts | 330° |
| 2026-05-05 22:47 | 47.10017 | 23.01995 | 37978 ft | 436 kts | 330° |
| 2026-05-05 22:48 | 47.15308 | 22.97651 | 37980 ft | 437 kts | 330° |
| 2026-05-05 22:48 | 47.20611 | 22.93288 | 37969 ft | 437 kts | 330° |
| 2026-05-05 22:49 | 47.25894 | 22.88932 | 37949 ft | 438 kts | 330° |
| 2026-05-05 22:49 | 47.31180 | 22.84563 | 37946 ft | 437 kts | 330° |
| 2026-05-05 22:50 | 47.36460 | 22.80189 | 37944 ft | 436 kts | 330° |
| 2026-05-05 22:50 | 47.41768 | 22.75782 | 37938 ft | 438 kts | 330° |
| 2026-05-05 22:51 | 47.47250 | 22.71219 | 37934 ft | 438 kts | 330° |
| 2026-05-05 22:51 | 47.53278 | 22.66190 | 37930 ft | 438 kts | 330° |
| 2026-05-05 22:52 | 47.59189 | 22.61245 | 37934 ft | 439 kts | 330° |
| 2026-05-05 22:52 | 47.64494 | 22.56797 | 37931 ft | 438 kts | 330° |
| 2026-05-05 22:53 | 47.69787 | 22.52347 | 37928 ft | 438 kts | 330° |
| 2026-05-05 22:53 | 47.75133 | 22.47842 | 37923 ft | 439 kts | 330° |
| 2026-05-05 22:54 | 47.80444 | 22.43348 | 37923 ft | 439 kts | 329° |
| 2026-05-05 22:54 | 47.85724 | 22.38678 | 37917 ft | 440 kts | 328° |
| 2026-05-05 22:55 | 47.91184 | 22.33725 | 37916 ft | 440 kts | 327° |
| 2026-05-05 22:55 | 47.96397 | 22.28990 | 37914 ft | 440 kts | 328° |
| 2026-05-05 22:56 | 48.01660 | 22.24216 | 37912 ft | 440 kts | 328° |
| 2026-05-05 22:56 | 48.06891 | 22.19471 | 37906 ft | 440 kts | 327° |
| 2026-05-05 22:57 | 48.12096 | 22.14742 | 37911 ft | 441 kts | 327° |
| 2026-05-05 22:57 | 48.17366 | 22.09946 | 37917 ft | 441 kts | 327° |
| 2026-05-05 22:58 | 48.22587 | 22.05182 | 37921 ft | 441 kts | 327° |
| 2026-05-05 22:58 | 48.27972 | 22.00259 | 37915 ft | 441 kts | 327° |
| 2026-05-05 22:59 | 48.33355 | 21.95324 | 37848 ft | 442 kts | 327° |
| 2026-05-05 22:59 | 48.36158 | 21.92749 | 37519 ft | 443 kts | 327° |
| 2026-05-05 22:59 | 48.38949 | 21.90180 | 37055 ft | 439 kts | 327° |
| 2026-05-05 22:59 | 48.41730 | 21.87619 | 36287 ft | 440 kts | 327° |
| 2026-05-05 23:00 | 48.47248 | 21.82528 | 35344 ft | 439 kts | 327° |
| 2026-05-05 23:00 | 48.50084 | 21.79905 | 34885 ft | 443 kts | 327° |
| 2026-05-05 23:00 | 48.52925 | 21.77273 | 34399 ft | 445 kts | 327° |
| 2026-05-05 23:01 | 48.55753 | 21.74651 | 33880 ft | 446 kts | 327° |
| 2026-05-05 23:01 | 48.58694 | 21.71921 | 33343 ft | 447 kts | 327° |
| 2026-05-05 23:01 | 48.61599 | 21.69221 | 32815 ft | 449 kts | 327° |
| 2026-05-05 23:01 | 48.64500 | 21.66521 | 32291 ft | 451 kts | 327° |
| 2026-05-05 23:02 | 48.67406 | 21.63813 | 31770 ft | 453 kts | 327° |
| 2026-05-05 23:02 | 48.70342 | 21.61073 | 31246 ft | 456 kts | 327° |
| 2026-05-05 23:02 | 48.73318 | 21.58293 | 30750 ft | 456 kts | 327° |
| 2026-05-05 23:02 | 48.76281 | 21.55521 | 30273 ft | 458 kts | 327° |
| 2026-05-05 23:03 | 48.79201 | 21.52784 | 29782 ft | 459 kts | 327° |
| 2026-05-05 23:03 | 48.82065 | 21.50096 | 29302 ft | 461 kts | 327° |
| 2026-05-05 23:03 | 48.84881 | 21.47450 | 28830 ft | 462 kts | 327° |
| 2026-05-05 23:03 | 48.87756 | 21.44744 | 28351 ft | 464 kts | 327° |
| 2026-05-05 23:04 | 48.90643 | 21.42023 | 27874 ft | 465 kts | 327° |
| 2026-05-05 23:04 | 48.93513 | 21.39315 | 27401 ft | 467 kts | 327° |
| 2026-05-05 23:04 | 48.96459 | 21.36531 | 26917 ft | 468 kts | 327° |
| 2026-05-05 23:04 | 48.99403 | 21.33746 | 26436 ft | 469 kts | 326° |
| 2026-05-05 23:05 | 49.02247 | 21.31051 | 25973 ft | 470 kts | 326° |
| 2026-05-05 23:05 | 49.05114 | 21.28331 | 25504 ft | 471 kts | 326° |
| 2026-05-05 23:05 | 49.08014 | 21.25575 | 25029 ft | 470 kts | 326° |
| 2026-05-05 23:05 | 49.10939 | 21.22791 | 24552 ft | 467 kts | 326° |
| 2026-05-05 23:06 | 49.13992 | 21.19882 | 24050 ft | 463 kts | 326° |
| 2026-05-05 23:06 | 49.16910 | 21.17098 | 23566 ft | 461 kts | 326° |
| 2026-05-05 23:06 | 49.19819 | 21.14317 | 23084 ft | 458 kts | 326° |
| 2026-05-05 23:06 | 49.22686 | 21.11572 | 22611 ft | 456 kts | 326° |
| 2026-05-05 23:07 | 49.25556 | 21.08822 | 22130 ft | 454 kts | 326° |
| 2026-05-05 23:07 | 49.28471 | 21.06020 | 21646 ft | 451 kts | 326° |
| 2026-05-05 23:07 | 49.31281 | 21.03078 | 21168 ft | 447 kts | 322° |
| 2026-05-05 23:07 | 49.33833 | 20.99923 | 20690 ft | 433 kts | 316° |
| 2026-05-05 23:08 | 49.35995 | 20.96683 | 20252 ft | 420 kts | 311° |
| 2026-05-05 23:08 | 49.37947 | 20.93381 | 19789 ft | 410 kts | 309° |
| 2026-05-05 23:08 | 49.39791 | 20.90072 | 19331 ft | 401 kts | 308° |
| 2026-05-05 23:08 | 49.41780 | 20.86408 | 18811 ft | 392 kts | 307° |
| 2026-05-05 23:09 | 49.43718 | 20.82804 | 18296 ft | 384 kts | 307° |
| 2026-05-05 23:09 | 49.45549 | 20.79394 | 17809 ft | 377 kts | 307° |
| 2026-05-05 23:09 | 49.47322 | 20.76104 | 17336 ft | 370 kts | 307° |
| 2026-05-05 23:09 | 49.48999 | 20.72999 | 16889 ft | 363 kts | 307° |
| 2026-05-05 23:10 | 49.50589 | 20.70063 | 16503 ft | 356 kts | 307° |
| 2026-05-05 23:10 | 49.52160 | 20.67168 | 16130 ft | 349 kts | 307° |
| 2026-05-05 23:10 | 49.53720 | 20.64292 | 15758 ft | 343 kts | 306° |
| 2026-05-05 23:10 | 49.55239 | 20.61494 | 15398 ft | 338 kts | 306° |
| 2026-05-05 23:11 | 49.56738 | 20.58735 | 15142 ft | 329 kts | 306° |
| 2026-05-05 23:11 | 49.58180 | 20.56076 | 14858 ft | 322 kts | 306° |
| 2026-05-05 23:11 | 49.59618 | 20.53411 | 14348 ft | 323 kts | 306° |
| 2026-05-05 23:11 | 49.61055 | 20.50742 | 13963 ft | 319 kts | 306° |
| 2026-05-05 23:12 | 49.62462 | 20.48129 | 13652 ft | 313 kts | 306° |
| 2026-05-05 23:12 | 49.63853 | 20.45542 | 13334 ft | 310 kts | 305° |
| 2026-05-05 23:12 | 49.65209 | 20.43014 | 12996 ft | 309 kts | 305° |
| 2026-05-05 23:12 | 49.66589 | 20.40438 | 12674 ft | 308 kts | 305° |
| 2026-05-05 23:13 | 49.67965 | 20.37872 | 12349 ft | 307 kts | 305° |
| 2026-05-05 23:13 | 49.69436 | 20.35131 | 11985 ft | 305 kts | 305° |
| 2026-05-05 23:13 | 49.70828 | 20.32533 | 11660 ft | 303 kts | 304° |
| 2026-05-05 23:13 | 49.72168 | 20.30027 | 11341 ft | 302 kts | 304° |
| 2026-05-05 23:14 | 49.73497 | 20.27541 | 11021 ft | 300 kts | 304° |
| 2026-05-05 23:14 | 49.74820 | 20.25062 | 10707 ft | 298 kts | 304° |
| 2026-05-05 23:14 | 49.76134 | 20.22595 | 10392 ft | 297 kts | 303° |
| 2026-05-05 23:14 | 49.77457 | 20.20112 | 10084 ft | 293 kts | 304° |
| 2026-05-05 23:15 | 49.78878 | 20.17760 | 9784 ft | 292 kts | 312° |
| 2026-05-05 23:15 | 49.80431 | 20.15783 | 9527 ft | 290 kts | 316° |
| 2026-05-05 23:15 | 49.82057 | 20.13933 | 9285 ft | 288 kts | 318° |
| 2026-05-05 23:15 | 49.83666 | 20.12124 | 9041 ft | 289 kts | 318° |
| 2026-05-05 23:16 | 49.85308 | 20.10245 | 8797 ft | 289 kts | 317° |
| 2026-05-05 23:16 | 49.86993 | 20.08283 | 8544 ft | 287 kts | 317° |
| 2026-05-05 23:16 | 49.88621 | 20.06368 | 8296 ft | 286 kts | 317° |
| 2026-05-05 23:16 | 49.90205 | 20.04500 | 8053 ft | 285 kts | 317° |
| 2026-05-05 23:17 | 49.91788 | 20.02718 | 7895 ft | 278 kts | 322° |
| 2026-05-05 23:17 | 49.93547 | 20.01441 | 7828 ft | 285 kts | 340° |
| 2026-05-05 23:17 | 49.95541 | 20.00777 | 7819 ft | 295 kts | 347° |
| 2026-05-05 23:17 | 49.97595 | 20.00413 | 7799 ft | 297 kts | 359° |
| 2026-05-05 23:18 | 49.99621 | 20.00895 | 7722 ft | 293 kts | 18° |
| 2026-05-05 23:18 | 50.01396 | 20.02436 | 7474 ft | 286 kts | 47° |
| 2026-05-05 23:18 | 50.02419 | 20.04974 | 7308 ft | 269 kts | 78° |
| 2026-05-05 23:18 | 50.02802 | 20.07735 | 7296 ft | 262 kts | 84° |
| 2026-05-05 23:19 | 50.03165 | 20.10609 | 7096 ft | 265 kts | 83° |
| 2026-05-05 23:19 | 50.03551 | 20.13388 | 6842 ft | 262 kts | 83° |
| 2026-05-05 23:19 | 50.03936 | 20.16121 | 6597 ft | 259 kts | 83° |
| 2026-05-05 23:19 | 50.04339 | 20.18835 | 6422 ft | 256 kts | 78° |
| 2026-05-05 23:20 | 50.05035 | 20.21381 | 6162 ft | 263 kts | 56° |
| 2026-05-05 23:20 | 50.06455 | 20.23155 | 5890 ft | 265 kts | 20° |
| 2026-05-05 23:20 | 50.08341 | 20.23510 | 5605 ft | 259 kts | 349° |
| 2026-05-05 23:20 | 50.10151 | 20.22914 | 5323 ft | 255 kts | 341° |
| 2026-05-05 23:21 | 50.11787 | 20.21814 | 5039 ft | 246 kts | 319° |
| 2026-05-05 23:21 | 50.12807 | 20.19778 | 4768 ft | 229 kts | 284° |
| 2026-05-05 23:21 | 50.13001 | 20.17346 | 4497 ft | 217 kts | 261° |
| 2026-05-05 23:21 | 50.12786 | 20.15068 | 4267 ft | 210 kts | 255° |
| 2026-05-05 23:22 | 50.12496 | 20.12830 | 4042 ft | 205 kts | 253° |
| 2026-05-05 23:22 | 50.12209 | 20.10689 | 3973 ft | 196 kts | 253° |
| 2026-05-05 23:22 | 50.11922 | 20.08583 | 3934 ft | 199 kts | 254° |
| 2026-05-05 23:22 | 50.11625 | 20.06414 | 3766 ft | 200 kts | 254° |
| 2026-05-05 23:23 | 50.11333 | 20.04272 | 3587 ft | 199 kts | 254° |
| 2026-05-05 23:23 | 50.11044 | 20.02159 | 3411 ft | 200 kts | 255° |
| 2026-05-05 23:23 | 50.10743 | 19.99960 | 3240 ft | 198 kts | 255° |
| 2026-05-05 23:23 | 50.10449 | 19.97809 | 3082 ft | 188 kts | 255° |
| 2026-05-05 23:24 | 50.10169 | 19.95771 | 2845 ft | 176 kts | 255° |
| 2026-05-05 23:24 | 50.09906 | 19.93866 | 2595 ft | 168 kts | 255° |
| 2026-05-05 23:24 | 50.09656 | 19.92056 | 2394 ft | 161 kts | 255° |
| 2026-05-05 23:24 | 50.09417 | 19.90332 | 2141 ft | 155 kts | 255° |
| 2026-05-05 23:25 | 50.09179 | 19.88604 | 1930 ft | 157 kts | 256° |
| 2026-05-05 23:25 | 50.08939 | 19.86875 | 1711 ft | 157 kts | 256° |
| 2026-05-05 23:25 | 50.08703 | 19.85164 | 1488 ft | 155 kts | 257° |
| 2026-05-05 23:25 | 50.08482 | 19.83514 | 1286 ft | 155 kts | 257° |
| 2026-05-05 23:26 | 50.08234 | 19.81817 | 1089 ft | 153 kts | 256° |
| 2026-05-05 23:26 | 50.08004 | 19.80162 | 878 ft | 153 kts | 257° |
| 2026-05-05 23:26 | 50.07767 | 19.78503 | 801 ft | 102 kts | 258° |
| 2026-05-05 23:26 | 50.07685 | 19.77883 | 801 ft | 22 kts | 260° |
| 2026-05-05 23:27 | 50.07653 | 19.77622 | 801 ft | 22 kts | 258° |
| 2026-05-05 23:27 | 50.07619 | 19.77379 | 801 ft | 21 kts | 257° |
| 2026-05-05 23:27 | 50.07590 | 19.77179 | 801 ft | 16 kts | 257° |
| 2026-05-05 23:27 | 50.07566 | 19.77011 | 801 ft | 15 kts | 257° |
| 2026-05-05 23:28 | 50.07528 | 19.76864 | 801 ft | 13 kts | 213° |
| 2026-05-05 23:28 | 50.07434 | 19.76866 | 801 ft | 12 kts | 169° |
| 2026-05-05 23:28 | 50.07350 | 19.76893 | 801 ft | 11 kts | 163° |
| 2026-05-05 23:28 | 50.07312 | 19.76977 | 801 ft | 9 kts | 88° |
| 2026-05-05 23:29 | 50.07322 | 19.77072 | 801 ft | 8 kts | 77° |
| 2026-05-05 23:29 | 50.07335 | 19.77161 | 801 ft | 9 kts | 77° |
| 2026-05-05 23:29 | 50.07351 | 19.77271 | 801 ft | 11 kts | 77° |
| 2026-05-05 23:29 | 50.07370 | 19.77404 | 801 ft | 13 kts | 78° |
| 2026-05-05 23:30 | 50.07392 | 19.77563 | 801 ft | 16 kts | 78° |
| 2026-05-05 23:30 | 50.07415 | 19.77743 | 801 ft | 18 kts | 77° |
| 2026-05-05 23:30 | 50.07445 | 19.77944 | 801 ft | 20 kts | 78° |
| 2026-05-05 23:30 | 50.07477 | 19.78171 | 801 ft | 22 kts | 78° |
| 2026-05-05 23:31 | 50.07510 | 19.78415 | 801 ft | 23 kts | 78° |
| 2026-05-05 23:31 | 50.07544 | 19.78657 | 801 ft | 22 kts | 78° |
| 2026-05-05 23:31 | 50.07577 | 19.78888 | 801 ft | 21 kts | 78° |
| 2026-05-05 23:31 | 50.07606 | 19.79109 | 801 ft | 20 kts | 77° |
| 2026-05-05 23:32 | 50.07636 | 19.79315 | 801 ft | 19 kts | 78° |
| 2026-05-05 23:32 | 50.07664 | 19.79514 | 801 ft | 18 kts | 78° |
| 2026-05-05 23:32 | 50.07690 | 19.79702 | 801 ft | 17 kts | 78° |
| 2026-05-05 23:32 | 50.07704 | 19.79845 | 801 ft | 10 kts | 108° |
| 2026-05-05 23:33 | 50.07643 | 19.79886 | 801 ft | 9 kts | 167° |
| 2026-05-05 23:33 | 50.07581 | 19.79909 | 801 ft | 9 kts | 167° |
| 2026-05-05 23:33 | 50.07511 | 19.79932 | 801 ft | 11 kts | 168° |
| 2026-05-05 23:33 | 50.07431 | 19.79960 | 801 ft | 11 kts | 164° |
| 2026-05-05 23:34 | 50.07361 | 19.79986 | 801 ft | 7 kts | 167° |
| 2026-05-05 23:34 | 50.07315 | 19.80002 | 801 ft | 4 kts | 167° |
| 2026-05-05 23:34 | 50.07307 | 19.80005 | 801 ft | 0 kts | 166° |